createdAt,value
2016-09-03T00:00:02.277Z,44.4
2016-09-03T00:01:02.993Z,43.91
2016-09-03T00:02:02.292Z,44.1
2016-09-03T00:03:03.060Z,44.2
2016-09-03T00:04:02.310Z,44.49
2016-09-03T00:05:02.316Z,44.3
2016-09-03T00:06:03.034Z,43.91
2016-09-03T00:07:03.590Z,43.82
2016-09-03T00:08:03.049Z,44.1
2016-09-03T00:09:03.207Z,44.01
2016-09-03T00:10:03.066Z,44.1
2016-09-03T00:11:03.073Z,44.3
2016-09-03T00:12:03.080Z,44.1
2016-09-03T00:13:03.433Z,43.72
2016-09-03T00:14:03.146Z,43.33
2016-09-03T00:15:03.105Z,43.62
2016-09-03T00:16:03.110Z,43.62
2016-09-03T00:17:02.413Z,43.43
2016-09-03T00:18:04.078Z,43.62
2016-09-03T00:19:02.427Z,43.52
2016-09-03T00:20:03.643Z,42.94
2016-09-03T00:21:02.445Z,43.13
2016-09-03T00:22:02.451Z,42.94
2016-09-03T00:23:02.461Z,42.94
2016-09-03T00:24:02.467Z,43.62
2016-09-03T00:25:02.477Z,43.13
2016-09-03T00:26:03.191Z,42.94
2016-09-03T00:27:03.196Z,43.23
2016-09-03T00:28:02.499Z,43.43
2016-09-03T00:29:03.214Z,43.33
2016-09-03T00:30:02.517Z,43.33
2016-09-03T00:31:04.131Z,43.13
2016-09-03T00:32:02.528Z,43.72
2016-09-03T00:33:03.257Z,43.23
2016-09-03T00:34:03.267Z,43.33
2016-09-03T00:35:02.553Z,43.23
2016-09-03T00:36:02.561Z,43.23
2016-09-03T00:37:03.288Z,43.33
2016-09-03T00:38:03.282Z,43.43
2016-09-03T00:39:03.290Z,43.04
2016-09-03T00:40:03.301Z,43.04
2016-09-03T00:41:02.600Z,42.85
2016-09-03T00:42:02.608Z,43.04
2016-09-03T00:43:17.494Z,43.04
2016-09-03T00:44:02.624Z,42.94
2016-09-03T00:45:03.341Z,43.13
2016-09-03T00:46:02.641Z,43.04
2016-09-03T00:47:03.355Z,42.85
2016-09-03T00:48:02.656Z,42.75
2016-09-03T00:49:03.373Z,42.85
2016-09-03T00:50:03.378Z,42.85
2016-09-03T00:51:02.679Z,43.23
2016-09-03T00:52:02.687Z,42.94
2016-09-03T00:53:02.696Z,42.94
2016-09-03T00:54:02.702Z,42.75
2016-09-03T00:55:02.719Z,43.04
2016-09-03T00:56:03.425Z,42.75
2016-09-03T00:57:03.432Z,43.23
2016-09-03T00:58:03.488Z,42.75
2016-09-03T00:59:02.741Z,42.85
2016-09-03T01:00:03.507Z,42.94
2016-09-03T01:01:03.462Z,42.75
2016-09-03T01:02:03.165Z,42.55
2016-09-03T01:03:03.477Z,42.55
2016-09-03T01:04:02.929Z,42.65
2016-09-03T01:05:03.494Z,42.85
2016-09-03T01:06:02.800Z,42.85
2016-09-03T01:07:03.511Z,43.04
2016-09-03T01:08:03.517Z,42.46
2016-09-03T01:09:03.522Z,42.46
2016-09-03T01:10:03.536Z,42.65
2016-09-03T01:11:03.543Z,42.75
2016-09-03T01:12:03.548Z,42.17
2016-09-03T01:13:06.711Z,42.85
2016-09-03T01:14:03.565Z,42.85
2016-09-03T01:15:03.579Z,42.36
2016-09-03T01:16:02.874Z,42.46
2016-09-03T01:17:03.589Z,42.65
2016-09-03T01:18:03.604Z,42.36
2016-09-03T01:19:03.602Z,42.36
2016-09-03T01:20:02.954Z,42.85
2016-09-03T01:21:03.621Z,42.75
2016-09-03T01:22:02.920Z,42.94
2016-09-03T01:23:03.645Z,42.85
2016-09-03T01:24:02.948Z,42.46
2016-09-03T01:25:02.945Z,42.75
2016-09-03T01:26:03.957Z,42.36
2016-09-03T01:27:03.666Z,42.36
2016-09-03T01:28:03.670Z,42.46
2016-09-03T01:29:03.679Z,42.26
2016-09-03T01:30:03.688Z,42.55
2016-09-03T01:31:02.987Z,43.04
2016-09-03T01:32:02.997Z,42.55
2016-09-03T01:33:03.710Z,42.55
2016-09-03T01:34:03.724Z,42.36
2016-09-03T01:35:04.387Z,42.36
2016-09-03T01:36:03.734Z,42.55
2016-09-03T01:37:04.249Z,42.36
2016-09-03T01:38:03.751Z,42.36
2016-09-03T01:39:03.052Z,42.46
2016-09-03T01:40:03.765Z,42.36
2016-09-03T01:41:03.783Z,42.55
2016-09-03T01:42:03.780Z,42.46
2016-09-03T01:43:17.960Z,42.46
2016-09-03T01:44:03.088Z,42.36
2016-09-03T01:45:03.806Z,42.26
2016-09-03T01:46:03.104Z,42.36
2016-09-03T01:47:03.877Z,42.55
2016-09-03T01:48:04.584Z,42.55
2016-09-03T01:49:03.838Z,42.46
2016-09-03T01:50:03.135Z,42.26
2016-09-03T01:51:03.145Z,42.55
2016-09-03T01:52:03.858Z,42.17
2016-09-03T01:53:03.864Z,42.17
2016-09-03T01:54:03.873Z,42.46
2016-09-03T01:55:03.322Z,42.36
2016-09-03T01:56:03.178Z,42.46
2016-09-03T01:57:03.896Z,42.54
2016-09-03T01:58:03.910Z,42.63
2016-09-03T01:59:04.960Z,42.46
2016-09-03T02:00:03.984Z,42.54
2016-09-03T02:01:03.928Z,42.46
2016-09-03T02:02:03.227Z,42.65
2016-09-03T02:03:03.942Z,41.88
2016-09-03T02:04:03.951Z,42.65
2016-09-03T02:05:03.959Z,42.65
2016-09-03T02:06:04.515Z,41.76
2016-09-03T02:07:03.971Z,42.05
2016-09-03T02:08:03.982Z,41.76
2016-09-03T02:09:03.283Z,41.47
2016-09-03T02:10:03.288Z,41.86
2016-09-03T02:11:03.294Z,41.76
2016-09-03T02:12:04.016Z,42.05
2016-09-03T02:13:04.019Z,41.86
2016-09-03T02:14:04.078Z,41.78
2016-09-03T02:15:03.333Z,41.76
2016-09-03T02:16:03.336Z,42.24
2016-09-03T02:17:05.003Z,42.34
2016-09-03T02:18:04.054Z,41.66
2016-09-03T02:19:03.960Z,41.56
2016-09-03T02:20:04.085Z,42.05
2016-09-03T02:21:03.374Z,41.66
2016-09-03T02:22:04.090Z,41.86
2016-09-03T02:23:04.098Z,41.56
2016-09-03T02:24:03.404Z,41.78
2016-09-03T02:25:04.113Z,42.14
2016-09-03T02:26:04.121Z,41.78
2016-09-03T02:27:03.425Z,41.58
2016-09-03T02:28:04.677Z,41.95
2016-09-03T02:29:04.143Z,42.05
2016-09-03T02:30:04.550Z,41.27
2016-09-03T02:31:03.451Z,41.56
2016-09-03T02:32:04.168Z,41.08
2016-09-03T02:33:04.173Z,41.66
2016-09-03T02:34:04.179Z,41.27
2016-09-03T02:35:04.189Z,41.08
2016-09-03T02:36:04.196Z,41.95
2016-09-03T02:37:03.498Z,41.95
2016-09-03T02:38:04.212Z,41.17
2016-09-03T02:39:04.219Z,41.08
2016-09-03T02:40:04.226Z,41.47
2016-09-03T02:41:03.526Z,41.47
2016-09-03T02:42:03.539Z,41.78
2016-09-03T02:43:04.250Z,41.95
2016-09-03T02:44:04.273Z,41.66
2016-09-03T02:45:03.562Z,41.66
2016-09-03T02:46:03.569Z,41.47
2016-09-03T02:47:04.283Z,41.37
2016-09-03T02:48:04.289Z,41.56
2016-09-03T02:49:03.588Z,41.66
2016-09-03T02:50:04.305Z,41.76
2016-09-03T02:51:04.309Z,41.76
2016-09-03T02:52:04.319Z,41.56
2016-09-03T02:53:04.326Z,41.86
2016-09-03T02:54:04.336Z,41.76
2016-09-03T02:55:03.634Z,41.27
2016-09-03T02:56:04.350Z,41.76
2016-09-03T02:57:04.357Z,41.76
2016-09-03T02:58:03.658Z,41.76
2016-09-03T02:59:04.373Z,41.58
2016-09-03T03:00:03.675Z,41.56
2016-09-03T03:01:04.388Z,41.47
2016-09-03T03:02:03.740Z,41.66
2016-09-03T03:03:03.698Z,41.56
2016-09-03T03:04:04.413Z,41.56
2016-09-03T03:05:03.711Z,41.86
2016-09-03T03:06:03.720Z,41.47
2016-09-03T03:07:04.441Z,41.86
2016-09-03T03:08:04.440Z,41.47
2016-09-03T03:09:04.500Z,41.76
2016-09-03T03:10:03.752Z,41.86
2016-09-03T03:11:03.758Z,41.17
2016-09-03T03:12:04.973Z,41.47
2016-09-03T03:13:18.650Z,41.66
2016-09-03T03:14:04.689Z,41.47
2016-09-03T03:15:04.502Z,41.76
2016-09-03T03:16:03.797Z,41.76
2016-09-03T03:17:03.854Z,41.08
2016-09-03T03:18:04.518Z,41.66
2016-09-03T03:19:03.819Z,41.47
2016-09-03T03:20:03.827Z,41.56
2016-09-03T03:21:04.541Z,41.66
2016-09-03T03:22:04.550Z,40.99
2016-09-03T03:23:05.657Z,41.76
2016-09-03T03:24:03.905Z,41.66
2016-09-03T03:25:05.641Z,41.56
2016-09-03T03:26:04.586Z,41.66
2016-09-03T03:27:04.634Z,41.76
2016-09-03T03:28:04.594Z,41.56
2016-09-03T03:29:03.895Z,41.17
2016-09-03T03:30:03.903Z,41.17
2016-09-03T03:31:03.910Z,41.66
2016-09-03T03:32:03.916Z,41.76
2016-09-03T03:33:03.926Z,41.86
2016-09-03T03:34:04.641Z,41.86
2016-09-03T03:35:03.939Z,41.08
2016-09-03T03:36:05.528Z,41.37
2016-09-03T03:37:03.961Z,41.17
2016-09-03T03:38:04.667Z,41.27
2016-09-03T03:39:04.679Z,41.47
2016-09-03T03:40:04.686Z,41.66
2016-09-03T03:41:04.702Z,41.47
2016-09-03T03:42:04.710Z,41.37
2016-09-03T03:43:04.852Z,41.37
2016-09-03T03:44:04.012Z,41.47
2016-09-03T03:45:05.025Z,41.08
2016-09-03T03:46:04.730Z,41.47
2016-09-03T03:47:04.034Z,41.47
2016-09-03T03:48:04.047Z,41.37
2016-09-03T03:49:04.048Z,40.99
2016-09-03T03:50:04.764Z,40.99
2016-09-03T03:51:04.771Z,41.37
2016-09-03T03:52:04.826Z,41.37
2016-09-03T03:53:04.081Z,41.47
2016-09-03T03:54:04.087Z,41.37
2016-09-03T03:55:04.097Z,41.47
2016-09-03T03:56:04.805Z,41.37
2016-09-03T03:57:04.109Z,40.89
2016-09-03T03:58:04.826Z,41.27
2016-09-03T03:59:04.127Z,41.47
2016-09-03T04:00:04.131Z,41.37
2016-09-03T04:01:04.846Z,40.69
2016-09-03T04:02:04.146Z,40.89
2016-09-03T04:03:04.912Z,40.79
2016-09-03T04:04:04.869Z,41.37
2016-09-03T04:05:04.878Z,41.47
2016-09-03T04:06:04.192Z,41.17
2016-09-03T04:07:05.239Z,40.79
2016-09-03T04:08:04.900Z,40.69
2016-09-03T04:09:05.208Z,41.08
2016-09-03T04:10:04.970Z,41.17
2016-09-03T04:11:04.922Z,41.47
2016-09-03T04:12:04.227Z,41.37
2016-09-03T04:13:04.232Z,41.08
2016-09-03T04:14:04.237Z,41.27
2016-09-03T04:15:04.248Z,41.27
2016-09-03T04:16:04.257Z,41.08
2016-09-03T04:17:05.019Z,41.17
2016-09-03T04:18:04.269Z,41.27
2016-09-03T04:19:04.984Z,41.47
2016-09-03T04:20:05.943Z,41.47
2016-09-03T04:21:05.002Z,41.08
2016-09-03T04:22:05.006Z,41.37
2016-09-03T04:23:05.017Z,41.08
2016-09-03T04:24:04.321Z,41.47
2016-09-03T04:25:05.033Z,41.27
2016-09-03T04:26:05.036Z,40.89
2016-09-03T04:27:05.047Z,41.27
2016-09-03T04:28:05.052Z,41.27
2016-09-03T04:29:05.064Z,40.79
2016-09-03T04:30:05.069Z,40.79
2016-09-03T04:31:04.371Z,41.08
2016-09-03T04:32:05.084Z,41.56
2016-09-03T04:33:05.094Z,41.27
2016-09-03T04:34:05.099Z,41.27
2016-09-03T04:35:05.112Z,41.47
2016-09-03T04:36:04.405Z,41.47
2016-09-03T04:37:04.414Z,41.47
2016-09-03T04:38:05.131Z,41.47
2016-09-03T04:39:05.137Z,41.47
2016-09-03T04:40:05.193Z,41.47
2016-09-03T04:41:05.154Z,41.47
2016-09-03T04:42:04.452Z,41.37
2016-09-03T04:43:05.166Z,41.47
2016-09-03T04:44:05.174Z,41.47
2016-09-03T04:45:05.181Z,41.37
2016-09-03T04:46:05.190Z,41.66
2016-09-03T04:47:05.197Z,41.47
2016-09-03T04:48:04.498Z,41.47
2016-09-03T04:49:05.214Z,41.47
2016-09-03T04:50:05.218Z,41.47
2016-09-03T04:51:04.519Z,41.47
2016-09-03T04:52:04.580Z,41.47
2016-09-03T04:53:05.492Z,41.47
2016-09-03T04:54:05.248Z,41.47
2016-09-03T04:55:04.551Z,41.27
2016-09-03T04:56:05.265Z,41.17
2016-09-03T04:57:05.271Z,41.37
2016-09-03T04:58:05.281Z,41.27
2016-09-03T04:59:04.578Z,41.47
2016-09-03T05:00:05.297Z,41.27
2016-09-03T05:01:04.594Z,41.47
2016-09-03T05:02:06.437Z,41.56
2016-09-03T05:03:05.366Z,41.47
2016-09-03T05:04:06.226Z,41.66
2016-09-03T05:05:05.329Z,41.76
2016-09-03T05:06:05.340Z,41.27
2016-09-03T05:07:04.640Z,41.37
2016-09-03T05:08:04.648Z,41.56
2016-09-03T05:09:05.365Z,41.76
2016-09-03T05:10:04.662Z,41.47
2016-09-03T05:11:04.672Z,41.66
2016-09-03T05:12:05.385Z,41.76
2016-09-03T05:13:05.391Z,41.66
2016-09-03T05:14:05.398Z,41.76
2016-09-03T05:15:04.699Z,41.08
2016-09-03T05:16:05.413Z,41.56
2016-09-03T05:17:04.716Z,41.27
2016-09-03T05:18:05.429Z,41.56
2016-09-03T05:19:05.436Z,41.56
2016-09-03T05:20:05.443Z,41.17
2016-09-03T05:21:05.457Z,41.66
2016-09-03T05:22:05.460Z,41.76
2016-09-03T05:23:05.466Z,41.37
2016-09-03T05:24:05.877Z,41.66
2016-09-03T05:25:04.776Z,41.76
2016-09-03T05:26:04.832Z,41.86
2016-09-03T05:27:05.497Z,40.99
2016-09-03T05:28:05.504Z,41.56
2016-09-03T05:29:04.803Z,41.47
2016-09-03T05:30:05.520Z,41.37
2016-09-03T05:31:05.574Z,40.99
2016-09-03T05:32:04.829Z,41.76
2016-09-03T05:33:05.540Z,41.66
2016-09-03T05:34:05.549Z,41.66
2016-09-03T05:35:05.852Z,41.47
2016-09-03T05:36:04.855Z,41.76
2016-09-03T05:37:05.570Z,41.66
2016-09-03T05:38:05.728Z,41.66
2016-09-03T05:39:04.881Z,41.76
2016-09-03T05:40:05.602Z,41.27
2016-09-03T05:41:05.604Z,41.66
2016-09-03T05:42:04.901Z,41.76
2016-09-03T05:43:05.618Z,41.27
2016-09-03T05:44:04.919Z,41.08
2016-09-03T05:45:05.631Z,41.08
2016-09-03T05:46:06.207Z,41.08
2016-09-03T05:47:05.648Z,41.37
2016-09-03T05:48:06.158Z,41.08
2016-09-03T05:49:05.664Z,41.66
2016-09-03T05:50:05.673Z,41.47
2016-09-03T05:51:04.974Z,41.08
2016-09-03T05:52:04.982Z,41.08
2016-09-03T05:53:05.693Z,41.76
2016-09-03T05:54:05.753Z,41.37
2016-09-03T05:55:05.003Z,41.86
2016-09-03T05:56:05.720Z,41.56
2016-09-03T05:57:06.687Z,41.56
2016-09-03T05:58:05.733Z,41.08
2016-09-03T05:59:05.047Z,41.66
2016-09-03T06:00:05.749Z,41.66
2016-09-03T06:01:05.755Z,40.99
2016-09-03T06:02:05.767Z,41.86
2016-09-03T06:03:05.068Z,41.08
2016-09-03T06:04:05.073Z,41.17
2016-09-03T06:05:05.083Z,41.08
2016-09-03T06:06:06.147Z,41.66
2016-09-03T06:07:05.807Z,41.66
2016-09-03T06:08:05.156Z,40.99
2016-09-03T06:09:05.826Z,41.76
2016-09-03T06:10:05.142Z,41.86
2016-09-03T06:11:05.836Z,41.56
2016-09-03T06:12:05.135Z,41.66
2016-09-03T06:13:05.144Z,41.37
2016-09-03T06:14:05.152Z,41.86
2016-09-03T06:15:05.158Z,41.17
2016-09-03T06:16:05.874Z,41.27
2016-09-03T06:17:06.127Z,41.37
2016-09-03T06:18:05.185Z,40.99
2016-09-03T06:19:05.897Z,41.86
2016-09-03T06:20:05.908Z,41.66
2016-09-03T06:21:05.914Z,41.56
2016-09-03T06:22:05.211Z,41.08
2016-09-03T06:23:05.928Z,41.37
2016-09-03T06:24:05.280Z,41.08
2016-09-03T06:25:05.287Z,41.56
2016-09-03T06:26:05.951Z,41.76
2016-09-03T06:27:05.960Z,41.56
2016-09-03T06:28:06.801Z,41.76
2016-09-03T06:29:05.975Z,41.27
2016-09-03T06:30:06.634Z,41.27
2016-09-03T06:31:05.284Z,41.56
2016-09-03T06:32:05.999Z,41.27
2016-09-03T06:33:05.301Z,41.27
2016-09-03T06:34:06.013Z,41.47
2016-09-03T06:35:06.025Z,41.27
2016-09-03T06:36:06.030Z,40.99
2016-09-03T06:37:06.050Z,41.47
2016-09-03T06:38:05.340Z,41.37
2016-09-03T06:39:06.056Z,40.99
2016-09-03T06:40:06.062Z,41.47
2016-09-03T06:41:07.169Z,41.47
2016-09-03T06:42:06.076Z,41.17
2016-09-03T06:43:06.088Z,41.27
2016-09-03T06:44:06.094Z,41.2
2016-09-03T06:45:05.395Z,41.17
2016-09-03T06:46:05.411Z,41.08
2016-09-03T06:47:05.413Z,41.39
2016-09-03T06:48:05.416Z,41.37
2016-09-03T06:49:06.134Z,41.49
2016-09-03T06:50:05.840Z,41.39
2016-09-03T06:51:05.444Z,41.49
2016-09-03T06:52:06.156Z,41.39
2016-09-03T06:53:05.459Z,41.56
2016-09-03T06:54:06.187Z,41.68
2016-09-03T06:55:06.181Z,41.1
2016-09-03T06:56:06.192Z,40.52
2016-09-03T06:57:06.198Z,41.27
2016-09-03T06:58:06.258Z,41.39
2016-09-03T06:59:06.214Z,40.59
2016-09-03T07:00:06.229Z,41.1
2016-09-03T07:01:06.233Z,40.52
2016-09-03T07:02:06.246Z,40.81
2016-09-03T07:03:05.541Z,41.1
2016-09-03T07:04:06.257Z,40.5
2016-09-03T07:05:05.556Z,40.81
2016-09-03T07:06:05.564Z,41.1
2016-09-03T07:07:06.282Z,41.39
2016-09-03T07:08:06.287Z,40.91
2016-09-03T07:09:06.297Z,41.1
2016-09-03T07:10:06.304Z,41.1
2016-09-03T07:11:06.309Z,41.1
2016-09-03T07:12:06.672Z,41.08
2016-09-03T07:13:05.622Z,41.2
2016-09-03T07:14:06.388Z,40.4
2016-09-03T07:15:06.345Z,41.3
2016-09-03T07:16:05.644Z,41.2
2016-09-03T07:17:05.651Z,41.17
2016-09-03T07:18:06.375Z,41.2
2016-09-03T07:19:05.669Z,41.2
2016-09-03T07:20:05.679Z,41.1
2016-09-03T07:21:06.394Z,41.08
2016-09-03T07:22:06.401Z,40.99
2016-09-03T07:23:05.700Z,40.89
2016-09-03T07:24:06.418Z,41.08
2016-09-03T07:25:06.975Z,40.81
2016-09-03T07:26:06.438Z,41.08
2016-09-03T07:27:06.448Z,41.2
2016-09-03T07:28:06.447Z,40.99
2016-09-03T07:29:06.458Z,41.1
2016-09-03T07:30:05.760Z,40.91
2016-09-03T07:31:05.815Z,40.99
2016-09-03T07:32:06.481Z,40.01
2016-09-03T07:33:06.494Z,40.59
2016-09-03T07:34:07.625Z,40.52
2016-09-03T07:35:05.800Z,40.59
2016-09-03T07:36:07.462Z,40.99
2016-09-03T07:37:06.522Z,40.99
2016-09-03T07:38:05.825Z,40.89
2016-09-03T07:39:05.830Z,40.69
2016-09-03T07:40:05.839Z,41.08
2016-09-03T07:41:06.552Z,41.08
2016-09-03T07:42:05.856Z,41.47
2016-09-03T07:43:05.864Z,41.49
2016-09-03T07:44:06.575Z,41.66
2016-09-03T07:45:05.877Z,41.37
2016-09-03T07:46:06.593Z,40.99
2016-09-03T07:47:05.942Z,41.95
2016-09-03T07:48:06.608Z,42.44
2016-09-03T07:49:05.911Z,41.76
2016-09-03T07:50:05.917Z,41.66
2016-09-03T07:51:05.931Z,42.44
2016-09-03T07:52:05.933Z,42.63
2016-09-03T07:53:05.937Z,42.72
2016-09-03T07:54:05.947Z,42.72
2016-09-03T07:55:05.959Z,42.14
2016-09-03T07:56:06.818Z,42.82
2016-09-03T07:57:06.674Z,42.54
2016-09-03T07:58:06.026Z,42.72
2016-09-03T07:59:05.984Z,43.19
2016-09-03T08:00:05.991Z,43.09
2016-09-03T08:01:05.995Z,42.9
2016-09-03T08:02:06.710Z,43.19
2016-09-03T08:03:06.011Z,42.8
2016-09-03T08:04:06.065Z,43.19
2016-09-03T08:05:06.026Z,43.48
2016-09-03T08:06:06.035Z,43.09
2016-09-03T08:07:06.639Z,43.38
2016-09-03T08:08:06.043Z,43
2016-09-03T08:09:06.756Z,43
2016-09-03T08:10:06.765Z,42.71
2016-09-03T08:11:06.769Z,42.9
2016-09-03T08:12:06.067Z,42.32
2016-09-03T08:13:06.782Z,42.71
2016-09-03T08:14:06.788Z,42.51
2016-09-03T08:15:06.799Z,42.51
2016-09-03T08:16:06.801Z,41.93
2016-09-03T08:17:06.807Z,42.41
2016-09-03T08:18:07.914Z,42.71
2016-09-03T08:19:06.111Z,42.59
2016-09-03T08:20:07.078Z,42.22
2016-09-03T08:21:06.833Z,42.9
2016-09-03T08:22:06.841Z,42.51
2016-09-03T08:23:06.848Z,42.41
2016-09-03T08:24:06.852Z,42.41
2016-09-03T08:25:06.856Z,42.13
2016-09-03T08:26:06.863Z,42.61
2016-09-03T08:27:06.220Z,41.93
2016-09-03T08:28:06.874Z,42.41
2016-09-03T08:29:06.176Z,43
2016-09-03T08:30:06.182Z,42.32
2016-09-03T08:31:07.703Z,42.51
2016-09-03T08:32:06.953Z,42.51
2016-09-03T08:33:06.202Z,42.61
2016-09-03T08:34:06.912Z,42.61
2016-09-03T08:35:06.919Z,42.32
2016-09-03T08:36:06.216Z,42.2
2016-09-03T08:37:06.932Z,42.41
2016-09-03T08:38:06.938Z,42.51
2016-09-03T08:39:06.243Z,42.71
2016-09-03T08:40:06.951Z,42.61
2016-09-03T08:41:06.963Z,41.93
2016-09-03T08:42:06.256Z,41.93
2016-09-03T08:43:06.970Z,42.03
2016-09-03T08:44:06.272Z,42.71
2016-09-03T08:45:06.984Z,42.13
2016-09-03T08:46:07.040Z,42.32
2016-09-03T08:47:06.287Z,42.41
2016-09-03T08:48:06.293Z,42.71
2016-09-03T08:49:07.008Z,41.93
2016-09-03T08:50:06.308Z,42.05
2016-09-03T08:51:07.724Z,42.05
2016-09-03T08:52:07.031Z,41.76
2016-09-03T08:53:07.234Z,42.44
2016-09-03T08:54:06.334Z,42.05
2016-09-03T08:55:06.339Z,42.41
2016-09-03T08:56:07.055Z,42.24
2016-09-03T08:57:06.353Z,42.34
2016-09-03T08:58:07.116Z,42.44
2016-09-03T08:59:06.364Z,42.44
2016-09-03T09:00:06.375Z,42.44
2016-09-03T09:01:06.381Z,41.66
2016-09-03T09:02:06.392Z,42.44
2016-09-03T09:03:06.392Z,42.63
2016-09-03T09:04:07.503Z,42.54
2016-09-03T09:05:07.115Z,42.05
2016-09-03T09:06:07.118Z,42.05
2016-09-03T09:07:07.127Z,42.05
2016-09-03T09:08:07.137Z,41.66
2016-09-03T09:09:07.142Z,41.88
2016-09-03T09:10:07.149Z,41.49
2016-09-03T09:11:06.449Z,42.44
2016-09-03T09:12:07.170Z,42.14
2016-09-03T09:13:07.172Z,42.82
2016-09-03T09:14:06.476Z,42.44
2016-09-03T09:15:06.479Z,42.82
2016-09-03T09:16:07.191Z,42.54
2016-09-03T09:17:07.201Z,42.44
2016-09-03T09:18:07.202Z,42.82
2016-09-03T09:19:07.217Z,42.72
2016-09-03T09:20:07.221Z,42.82
2016-09-03T09:21:06.519Z,42.54
2016-09-03T09:22:07.233Z,42.72
2016-09-03T09:23:06.532Z,43.02
2016-09-03T09:24:07.845Z,42.82
2016-09-03T09:25:06.543Z,43.6
2016-09-03T09:26:07.257Z,43.58
2016-09-03T09:27:07.267Z,43.12
2016-09-03T09:28:07.272Z,43.21
2016-09-03T09:29:07.279Z,43.12
2016-09-03T09:30:06.583Z,42.92
2016-09-03T09:31:07.295Z,42.82
2016-09-03T09:32:07.303Z,43.5
2016-09-03T09:33:06.598Z,43.5
2016-09-03T09:34:07.313Z,43.6
2016-09-03T09:35:07.716Z,43.21
2016-09-03T09:36:07.343Z,43.41
2016-09-03T09:37:07.485Z,43.31
2016-09-03T09:38:06.636Z,43.6
2016-09-03T09:39:07.347Z,43.31
2016-09-03T09:40:07.356Z,43.6
2016-09-03T09:41:06.656Z,43.6
2016-09-03T09:42:07.367Z,44.37
2016-09-03T09:43:07.388Z,44.18
2016-09-03T09:44:07.382Z,44.18
2016-09-03T09:45:06.682Z,43.7
2016-09-03T09:46:06.693Z,43.89
2016-09-03T09:47:07.403Z,43.89
2016-09-03T09:48:06.703Z,44.57
2016-09-03T09:49:07.419Z,44.09
2016-09-03T09:50:07.423Z,43.99
2016-09-03T09:51:07.428Z,43.89
2016-09-03T09:52:07.442Z,43.89
2016-09-03T09:53:07.450Z,44.37
2016-09-03T09:54:06.745Z,43.99
2016-09-03T09:55:07.707Z,44.67
2016-09-03T09:56:06.757Z,44.27
2016-09-03T09:57:06.766Z,44.37
2016-09-03T09:58:06.781Z,44.37
2016-09-03T09:59:08.538Z,43.99
2016-09-03T10:00:07.493Z,44.27
2016-09-03T10:01:07.499Z,44.37
2016-09-03T10:02:07.504Z,44.37
2016-09-03T10:03:07.513Z,44.96
2016-09-03T10:04:07.521Z,44.86
2016-09-03T10:05:06.818Z,45.05
2016-09-03T10:06:08.234Z,45.51
2016-09-03T10:07:07.539Z,46
2016-09-03T10:08:07.548Z,45.32
2016-09-03T10:09:07.553Z,45.42
2016-09-03T10:10:07.558Z,46
2016-09-03T10:11:06.860Z,46.19
2016-09-03T10:12:06.866Z,45.81
2016-09-03T10:13:07.575Z,46.19
2016-09-03T10:14:07.585Z,46
2016-09-03T10:15:07.592Z,46
2016-09-03T10:16:06.889Z,46.09
2016-09-03T10:17:08.726Z,46
2016-09-03T10:18:06.904Z,45.44
2016-09-03T10:19:07.817Z,46.48
2016-09-03T10:20:07.622Z,45.71
2016-09-03T10:21:06.921Z,45.25
2016-09-03T10:22:07.637Z,46.12
2016-09-03T10:23:07.643Z,46.19
2016-09-03T10:24:06.946Z,46.09
2016-09-03T10:25:07.657Z,45.81
2016-09-03T10:26:07.663Z,46.09
2016-09-03T10:27:06.961Z,46.31
2016-09-03T10:28:06.969Z,46.58
2016-09-03T10:29:06.975Z,46.67
2016-09-03T10:30:06.981Z,46.97
2016-09-03T10:31:06.990Z,46.97
2016-09-03T10:32:07.699Z,46.67
2016-09-03T10:33:07.706Z,46.39
2016-09-03T10:34:07.005Z,46.39
2016-09-03T10:35:07.719Z,46.77
2016-09-03T10:36:07.726Z,46.29
2016-09-03T10:37:07.734Z,46.97
2016-09-03T10:38:07.031Z,46.97
2016-09-03T10:39:07.746Z,47.74
2016-09-03T10:40:07.750Z,47.45
2016-09-03T10:41:08.897Z,47.84
2016-09-03T10:42:07.057Z,47.55
2016-09-03T10:43:07.770Z,47.16
2016-09-03T10:44:07.780Z,47.55
2016-09-03T10:45:07.074Z,47.26
2016-09-03T10:46:07.081Z,46.87
2016-09-03T10:47:07.796Z,46.02
2016-09-03T10:48:07.803Z,46.41
2016-09-03T10:49:07.808Z,46.7
2016-09-03T10:50:07.817Z,46.51
2016-09-03T10:51:07.115Z,46.22
2016-09-03T10:52:07.828Z,46.89
2016-09-03T10:53:07.127Z,47.45
2016-09-03T10:54:07.189Z,48.13
2016-09-03T10:55:07.849Z,47.84
2016-09-03T10:56:07.852Z,47.55
2016-09-03T10:57:07.859Z,46.97
2016-09-03T10:58:08.868Z,46.41
2016-09-03T10:59:07.876Z,47.19
2016-09-03T11:00:07.880Z,46.8
2016-09-03T11:01:08.538Z,47.28
2016-09-03T11:02:07.187Z,48.32
2016-09-03T11:03:07.443Z,47.55
2016-09-03T11:04:07.250Z,47.74
2016-09-03T11:05:07.205Z,47.74
2016-09-03T11:06:07.221Z,48.13
2016-09-03T11:07:07.928Z,48.22
2016-09-03T11:08:07.935Z,47.55
2016-09-03T11:09:07.233Z,48.54
2016-09-03T11:10:07.241Z,48.22
2016-09-03T11:11:07.247Z,48.42
2016-09-03T11:12:09.051Z,48.22
2016-09-03T11:13:07.259Z,47.84
2016-09-03T11:14:08.774Z,48.03
2016-09-03T11:15:07.980Z,46.8
2016-09-03T11:16:07.988Z,46.6
2016-09-03T11:17:07.994Z,46.6
2016-09-03T11:18:07.999Z,46.89
2016-09-03T11:19:07.299Z,47.67
2016-09-03T11:20:08.066Z,47.26
2016-09-03T11:21:08.021Z,48.35
2016-09-03T11:22:07.319Z,48.13
2016-09-03T11:23:08.035Z,48.13
2016-09-03T11:24:07.332Z,48.61
2016-09-03T11:25:08.466Z,47.84
2016-09-03T11:26:08.061Z,48.52
2016-09-03T11:27:07.356Z,48.06
2016-09-03T11:28:07.361Z,48.54
2016-09-03T11:29:07.366Z,47.57
2016-09-03T11:30:08.082Z,47.09
2016-09-03T11:31:07.381Z,47.77
2016-09-03T11:32:07.390Z,48.15
2016-09-03T11:33:08.104Z,48.15
2016-09-03T11:34:07.402Z,47.57
2016-09-03T11:35:07.408Z,48.44
2016-09-03T11:36:07.416Z,47.96
2016-09-03T11:37:08.129Z,47.47
2016-09-03T11:38:08.136Z,47.47
2016-09-03T11:39:08.145Z,48.25
2016-09-03T11:40:08.149Z,48.25
2016-09-03T11:41:08.157Z,48.54
2016-09-03T11:42:07.456Z,47.67
2016-09-03T11:43:07.465Z,48.54
2016-09-03T11:44:08.178Z,47.47
2016-09-03T11:45:08.484Z,47.86
2016-09-03T11:46:08.193Z,48.35
2016-09-03T11:47:07.640Z,48.13
2016-09-03T11:48:08.255Z,48.44
2016-09-03T11:49:07.506Z,48.93
2016-09-03T11:50:08.221Z,48.06
2016-09-03T11:51:07.519Z,48.44
2016-09-03T11:52:08.233Z,48.44
2016-09-03T11:53:08.238Z,47.86
2016-09-03T11:54:08.315Z,47.96
2016-09-03T11:55:08.254Z,48.15
2016-09-03T11:56:08.508Z,48.06
2016-09-03T11:57:08.269Z,48.44
2016-09-03T11:58:08.265Z,48.44
2016-09-03T11:59:08.279Z,47.57
2016-09-03T12:00:07.581Z,48.25
2016-09-03T12:01:07.594Z,48.15
2016-09-03T12:02:07.594Z,47.57
2016-09-03T12:03:08.306Z,48.25
2016-09-03T12:04:08.314Z,47.96
2016-09-03T12:05:07.617Z,47.67
2016-09-03T12:06:07.674Z,48.06
2016-09-03T12:07:08.995Z,48.15
2016-09-03T12:08:07.635Z,47.6
2016-09-03T12:09:08.850Z,47.57
2016-09-03T12:10:07.651Z,48.25
2016-09-03T12:11:08.365Z,47.57
2016-09-03T12:12:07.666Z,47.69
2016-09-03T12:13:07.668Z,46.92
2016-09-03T12:14:07.679Z,48.18
2016-09-03T12:15:07.687Z,47.69
2016-09-03T12:16:08.401Z,48.37
2016-09-03T12:17:07.703Z,48.08
2016-09-03T12:18:08.417Z,48.47
2016-09-03T12:19:08.422Z,48.66
2016-09-03T12:20:09.481Z,47.98
2016-09-03T12:21:08.435Z,47.98
2016-09-03T12:22:08.445Z,48.25
2016-09-03T12:23:08.504Z,48.54
2016-09-03T12:24:07.751Z,48.08
2016-09-03T12:25:08.468Z,48.64
2016-09-03T12:26:07.769Z,48.08
2016-09-03T12:27:08.479Z,48.47
2016-09-03T12:28:08.489Z,47.98
2016-09-03T12:29:08.495Z,48.25
2016-09-03T12:30:07.798Z,48.27
2016-09-03T12:31:07.803Z,47.98
2016-09-03T12:32:08.567Z,48.44
2016-09-03T12:33:07.869Z,48.44
2016-09-03T12:34:07.825Z,48.74
2016-09-03T12:35:07.831Z,48.57
2016-09-03T12:36:08.558Z,49.22
2016-09-03T12:37:08.552Z,48.93
2016-09-03T12:38:08.577Z,49.02
2016-09-03T12:39:08.567Z,49.32
2016-09-03T12:40:08.575Z,48.76
2016-09-03T12:41:08.579Z,48.54
2016-09-03T12:42:07.930Z,48.47
2016-09-03T12:43:08.597Z,48.25
2016-09-03T12:44:08.610Z,48.08
2016-09-03T12:45:07.905Z,47.98
2016-09-03T12:46:08.618Z,48.27
2016-09-03T12:47:07.918Z,48.18
2016-09-03T12:48:08.634Z,47.98
2016-09-03T12:49:07.981Z,48.66
2016-09-03T12:50:07.939Z,48.57
2016-09-03T12:51:08.497Z,48.64
2016-09-03T12:52:07.955Z,48.44
2016-09-03T12:53:09.788Z,49.44
2016-09-03T12:54:08.676Z,49.15